createdAt,value
2022-12-25T00:03:00.782Z,14.98
2022-12-25T00:06:03.494Z,13.57
2022-12-25T00:09:05.757Z,15.13
2022-12-25T00:12:08.056Z,21.05
2022-12-25T00:15:10.770Z,18.35
2022-12-25T00:18:14.394Z,9.35
2022-12-25T00:21:16.981Z,15.77
2022-12-25T00:24:19.278Z,14.43
2022-12-25T00:27:23.484Z,13.60
2022-12-25T00:30:25.840Z,14.07
2022-12-25T00:33:29.869Z,10.48
2022-12-25T00:36:36.320Z,12.77
2022-12-25T00:39:43.623Z,16.98
2022-12-25T00:42:45.827Z,19.38
2022-12-25T00:45:55.533Z,12.90
2022-12-25T00:49:00.567Z,9.38
2022-12-25T00:52:03.444Z,15.60
2022-12-25T00:55:06.526Z,11.45
2022-12-25T00:58:08.857Z,16.90
2022-12-25T01:01:11.899Z,13.77
2022-12-25T01:04:15.509Z,12.05
2022-12-25T01:07:19.925Z,11.43
2022-12-25T01:10:22.251Z,10.38
2022-12-25T01:13:24.568Z,9.90
2022-12-25T01:16:27.073Z,10.95
2022-12-25T01:19:30.960Z,14.05
2022-12-25T01:22:33.163Z,7.95
2022-12-25T01:25:35.461Z,8.95
2022-12-25T01:28:41.035Z,10.60
2022-12-25T01:31:43.356Z,10.88
2022-12-25T01:34:50.582Z,12.13
2022-12-25T01:37:58.010Z,14.57
2022-12-25T01:41:00.385Z,11.68
2022-12-25T01:44:06.391Z,11.25
2022-12-25T01:47:08.655Z,9.68
2022-12-25T01:50:12.291Z,10.52
2022-12-25T01:53:14.689Z,11.02
2022-12-25T01:56:17.079Z,11.88
2022-12-25T01:59:21.281Z,9.95
2022-12-25T02:02:24.056Z,13.75
2022-12-25T02:05:29.800Z,10.40
2022-12-25T02:08:32.791Z,8.68
2022-12-25T02:11:53.821Z,12.35
2022-12-25T02:15:04.654Z,11.77
2022-12-25T02:18:12.748Z,11.55
2022-12-25T02:21:26.333Z,10.23
2022-12-25T02:24:43.176Z,6.57
2022-12-25T02:28:09.707Z,17.63
2022-12-25T02:31:13.816Z,11.93
2022-12-25T02:34:19.268Z,12.77
2022-12-25T02:37:27.272Z,7.97
2022-12-25T02:40:32.733Z,14.95
2022-12-25T02:43:58.247Z,12.45
2022-12-25T02:47:21.290Z,15.35
2022-12-25T02:50:43.290Z,11.05
2022-12-25T02:57:28.411Z,11.75
2022-12-25T03:00:53.679Z,14.30
2022-12-25T03:04:16.423Z,16.52
2022-12-25T03:07:21.485Z,10.23
2022-12-25T03:10:43.003Z,17.08
2022-12-25T03:13:46.988Z,14.85
2022-12-25T03:16:54.550Z,9.15
2022-12-25T03:20:16.264Z,13.32
2022-12-25T03:23:40.270Z,11.50
2022-12-25T03:26:55.222Z,9.00
2022-12-25T03:30:16.287Z,13.40
2022-12-25T03:33:44.433Z,14.80
2022-12-25T03:37:33.447Z,8.65
2022-12-25T03:41:00.609Z,11.32
2022-12-25T03:44:27.209Z,9.93
2022-12-25T03:48:08.667Z,13.32
2022-12-25T03:51:32.353Z,16.20
2022-12-25T03:54:55.467Z,13.35
2022-12-25T03:58:16.485Z,12.35
2022-12-25T04:01:37.511Z,9.75
2022-12-25T04:04:58.646Z,10.00
2022-12-25T04:08:21.081Z,7.78
2022-12-25T04:11:42.128Z,14.20
2022-12-25T04:15:03.058Z,9.10
2022-12-25T04:18:23.812Z,10.45
2022-12-25T04:21:44.770Z,13.07
2022-12-25T04:25:07.094Z,10.30
2022-12-25T04:28:27.771Z,12.55
2022-12-25T04:31:48.913Z,7.90
2022-12-25T04:35:09.994Z,13.07
2022-12-25T04:38:12.324Z,15.53
2022-12-25T04:41:15.989Z,8.95
2022-12-25T04:44:18.205Z,8.50
2022-12-25T04:47:20.453Z,10.77
2022-12-25T04:50:22.702Z,13.05
2022-12-25T04:53:25.008Z,16.20
2022-12-25T04:56:28.662Z,7.63
2022-12-25T04:59:30.939Z,12.10
2022-12-25T05:02:33.382Z,9.35
2022-12-25T05:05:39.334Z,11.73
2022-12-25T05:08:41.614Z,10.15
2022-12-25T05:11:45.224Z,6.18
2022-12-25T05:14:49.195Z,13.05
2022-12-25T05:17:51.555Z,7.75
2022-12-25T05:20:54.519Z,7.75
2022-12-25T05:23:56.822Z,11.02
2022-12-25T05:27:00.420Z,10.73
2022-12-25T05:30:03.438Z,11.98
2022-12-25T05:33:05.903Z,4.30
2022-12-25T05:36:09.885Z,10.38
2022-12-25T05:39:12.378Z,7.88
2022-12-25T05:42:16.173Z,9.68
2022-12-25T05:45:18.581Z,11.57
2022-12-25T05:48:20.975Z,12.07
2022-12-25T05:51:23.212Z,12.85
2022-12-25T05:54:25.509Z,12.48
2022-12-25T05:57:29.811Z,14.70
2022-12-25T06:00:52.977Z,12.40
2022-12-25T06:03:56.311Z,12.35
2022-12-25T06:06:58.624Z,15.30
2022-12-25T06:10:00.887Z,15.38
2022-12-25T06:13:04.585Z,7.32
2022-12-25T06:16:08.176Z,7.00
2022-12-25T06:19:10.561Z,8.55
2022-12-25T06:22:12.829Z,9.48
2022-12-25T06:25:15.248Z,10.88
2022-12-25T06:28:18.746Z,6.75
2022-12-25T06:31:22.899Z,7.68
2022-12-25T06:34:25.277Z,12.43
2022-12-25T06:37:27.484Z,16.60
2022-12-25T06:40:29.740Z,7.72
2022-12-25T06:43:33.266Z,11.93
2022-12-25T06:46:35.814Z,7.65
2022-12-25T06:49:38.096Z,8.02
2022-12-25T06:52:40.399Z,13.07
2022-12-25T06:55:42.714Z,12.55
2022-12-25T06:58:47.492Z,11.57
2022-12-25T07:01:53.269Z,8.43
2022-12-25T07:04:55.621Z,9.95
2022-12-25T07:07:57.877Z,8.57
2022-12-25T07:11:00.323Z,12.02
2022-12-25T07:14:03.918Z,10.77
2022-12-25T07:17:06.785Z,8.38
2022-12-25T07:20:09.830Z,7.28
2022-12-25T07:23:12.138Z,9.13
2022-12-25T07:26:15.016Z,11.40
2022-12-25T07:29:19.605Z,9.93
2022-12-25T07:32:21.850Z,11.57
2022-12-25T07:35:24.156Z,8.20
2022-12-25T07:38:26.573Z,12.30
2022-12-25T07:41:28.800Z,7.50
2022-12-25T07:44:50.011Z,11.27
2022-12-25T07:47:55.082Z,13.88
2022-12-25T07:50:58.880Z,12.95
2022-12-25T07:54:01.184Z,8.73
2022-12-25T07:57:03.636Z,7.85
2022-12-25T08:00:09.591Z,16.20
2022-12-25T08:03:15.919Z,10.73
2022-12-25T08:06:18.937Z,10.40
2022-12-25T08:09:21.217Z,8.02
2022-12-25T08:12:23.398Z,9.55
2022-12-25T08:15:27.642Z,12.73
2022-12-25T08:18:30.620Z,10.20
2022-12-25T08:21:35.905Z,11.80
2022-12-25T08:24:38.102Z,8.93
2022-12-25T08:27:40.438Z,13.27
2022-12-25T08:30:43.998Z,11.18
2022-12-25T08:33:47.045Z,13.10
2022-12-25T08:36:50.643Z,8.57
2022-12-25T08:39:53.355Z,11.32
2022-12-25T08:42:56.366Z,8.10
2022-12-25T08:46:03.091Z,6.82
2022-12-25T08:49:05.436Z,8.45
2022-12-25T08:52:07.857Z,11.25
2022-12-25T08:55:10.235Z,6.45
2022-12-25T08:58:12.720Z,10.85
2022-12-25T09:01:16.702Z,10.18
2022-12-25T09:04:19.067Z,12.13
2022-12-25T09:07:21.369Z,11.77
2022-12-25T09:10:23.781Z,8.50
2022-12-25T09:13:26.040Z,8.10
2022-12-25T09:16:29.854Z,8.18
2022-12-25T09:19:32.263Z,5.60
2022-12-25T09:22:35.085Z,8.20
2022-12-25T09:25:37.345Z,10.40
2022-12-25T09:28:43.675Z,14.60
2022-12-25T09:31:50.434Z,12.77
2022-12-25T09:34:52.737Z,6.43
2022-12-25T09:37:55.156Z,8.00
2022-12-25T09:40:59.092Z,7.90
2022-12-25T09:44:04.371Z,8.05
2022-12-25T09:47:13.790Z,10.32
2022-12-25T09:50:18.899Z,12.75
2022-12-25T09:53:23.038Z,7.57
2022-12-25T09:56:25.880Z,9.25
2022-12-25T09:59:28.233Z,12.27
2022-12-25T10:02:47.813Z,13.77
2022-12-25T10:06:03.266Z,17.50
2022-12-25T10:09:18.942Z,11.68
2022-12-25T10:12:35.221Z,14.60
2022-12-25T10:15:45.838Z,9.70
2022-12-25T10:18:59.019Z,12.25
2022-12-25T10:22:05.166Z,21.48
2022-12-25T10:25:16.095Z,16.88
2022-12-25T10:28:23.858Z,15.15
2022-12-25T10:31:27.709Z,16.05
2022-12-25T10:34:32.603Z,12.98
2022-12-25T10:37:34.928Z,17.88
2022-12-25T10:40:44.523Z,17.33
2022-12-25T10:43:50.102Z,14.35
2022-12-25T10:46:55.132Z,16.00
2022-12-25T10:49:59.120Z,20.17
2022-12-25T10:53:04.712Z,16.95
2022-12-25T10:56:13.843Z,21.38
2022-12-25T10:59:16.080Z,15.45
2022-12-25T11:02:22.232Z,14.48
2022-12-25T11:05:28.591Z,16.85
2022-12-25T11:08:31.968Z,20.80
2022-12-25T11:11:34.271Z,20.05
2022-12-25T11:14:37.313Z,21.67
2022-12-25T11:17:39.574Z,15.20
2022-12-25T11:20:49.721Z,11.55
2022-12-25T11:23:57.064Z,18.00
2022-12-25T11:27:00.929Z,13.48
2022-12-25T11:30:04.556Z,12.18
2022-12-25T11:33:11.228Z,12.82
2022-12-25T11:36:20.418Z,21.75
2022-12-25T11:39:24.487Z,16.95
2022-12-25T11:42:29.153Z,16.02
2022-12-25T11:45:35.641Z,12.20
2022-12-25T11:48:41.540Z,17.38
2022-12-25T11:51:47.560Z,21.42
2022-12-25T11:54:54.112Z,15.00
2022-12-25T11:58:00.363Z,15.18
2022-12-25T12:01:08.601Z,18.73
2022-12-25T12:04:17.385Z,13.82
2022-12-25T12:07:26.410Z,18.25
2022-12-25T12:10:35.628Z,10.05
2022-12-25T12:13:43.986Z,18.65
2022-12-25T12:16:46.567Z,25.45
2022-12-25T12:19:48.954Z,14.50
2022-12-25T12:22:52.776Z,19.25
2022-12-25T12:25:55.603Z,16.15
2022-12-25T12:29:00.248Z,16.15
2022-12-25T12:32:04.160Z,17.45
2022-12-25T12:35:16.489Z,17.73
2022-12-25T12:38:21.246Z,19.05
2022-12-25T12:41:24.368Z,18.92
2022-12-25T12:44:31.615Z,23.13
2022-12-25T12:47:39.045Z,22.77
2022-12-25T12:50:42.133Z,35.20
2022-12-25T12:53:45.756Z,36.80
2022-12-25T12:56:58.938Z,27.00
2022-12-25T13:00:10.575Z,31.40
2022-12-25T13:03:33.661Z,32.10
2022-12-25T13:06:41.344Z,34.72
2022-12-25T13:09:55.287Z,31.67
2022-12-25T13:12:59.968Z,33.25
2022-12-25T13:16:03.561Z,32.08
2022-12-25T13:19:08.011Z,26.02
2022-12-25T13:22:22.389Z,25.55
2022-12-25T13:25:25.996Z,26.85
2022-12-25T13:28:29.600Z,25.33
2022-12-25T13:31:32.149Z,30.10
2022-12-25T13:34:36.677Z,29.42
2022-12-25T13:37:38.987Z,35.35
2022-12-25T13:41:10.088Z,37.80
2022-12-25T13:44:18.267Z,27.83
2022-12-25T13:47:25.406Z,30.35
2022-12-25T13:50:30.347Z,31.63
2022-12-25T13:53:32.715Z,29.83
2022-12-25T13:56:36.298Z,34.20
2022-12-25T13:59:38.920Z,26.30
2022-12-25T14:02:41.493Z,27.88
2022-12-25T14:05:44.079Z,33.20
2022-12-25T14:08:46.937Z,27.67
2022-12-25T14:11:51.529Z,29.92
2022-12-25T14:14:55.067Z,29.00
2022-12-25T14:17:57.901Z,23.88
2022-12-25T14:21:02.820Z,28.30
2022-12-25T14:24:12.965Z,26.13
2022-12-25T14:27:20.124Z,28.83
2022-12-25T14:30:23.194Z,28.67
2022-12-25T14:33:26.269Z,36.00
2022-12-25T14:36:29.546Z,24.20
2022-12-25T14:39:34.869Z,32.25
2022-12-25T14:42:39.283Z,24.88
2022-12-25T14:45:41.836Z,28.90
2022-12-25T14:48:44.284Z,29.55
2022-12-25T14:51:47.402Z,24.70
2022-12-25T14:54:52.539Z,21.75
2022-12-25T14:57:58.839Z,28.52
2022-12-25T15:01:03.720Z,25.27
2022-12-25T15:04:08.270Z,25.00
2022-12-25T15:07:26.124Z,22.38
2022-12-25T15:10:58.970Z,24.67
2022-12-25T15:13:52.678Z,23.45
2022-12-25T15:16:57.181Z,22.00
2022-12-25T15:20:01.236Z,24.95
2022-12-25T15:23:19.410Z,25.40
2022-12-25T15:26:22.943Z,24.40
2022-12-25T15:29:59.753Z,36.55
2022-12-25T15:32:48.919Z,23.10
2022-12-25T15:35:51.289Z,29.67
2022-12-25T15:38:54.382Z,29.08
2022-12-25T15:42:11.941Z,26.33
2022-12-25T15:45:19.987Z,34.10
2022-12-25T15:48:22.308Z,28.88
2022-12-25T15:51:24.722Z,30.17
2022-12-25T15:54:27.368Z,25.05
2022-12-25T15:57:30.671Z,25.38
2022-12-25T16:00:34.435Z,27.23
2022-12-25T16:03:36.927Z,24.08
2022-12-25T16:06:39.329Z,28.02
2022-12-25T16:09:41.808Z,27.33
2022-12-25T16:12:47.385Z,24.80
2022-12-25T16:15:51.214Z,25.02
2022-12-25T16:18:54.313Z,29.48
2022-12-25T16:21:56.683Z,28.13
2022-12-25T16:24:59.022Z,22.63
2022-12-25T16:28:03.514Z,23.50
2022-12-25T16:31:07.206Z,22.05
2022-12-25T16:34:10.688Z,23.25
2022-12-25T16:37:13.037Z,21.88
2022-12-25T16:40:15.380Z,17.45
2022-12-25T16:43:23.789Z,22.58
2022-12-25T16:46:27.934Z,16.50
2022-12-25T16:49:30.303Z,16.77
2022-12-25T16:52:33.492Z,19.52
2022-12-25T16:55:37.747Z,21.85
2022-12-25T16:58:40.334Z,17.55
2022-12-25T17:01:44.321Z,15.82
2022-12-25T17:04:47.306Z,21.67
2022-12-25T17:07:49.664Z,16.52
2022-12-25T17:10:51.947Z,21.52
2022-12-25T17:13:54.502Z,20.45
2022-12-25T17:16:58.317Z,14.23
2022-12-25T17:20:00.733Z,18.25
2022-12-25T17:23:03.116Z,16.30
2022-12-25T17:26:06.040Z,22.27
2022-12-25T17:29:08.663Z,22.60
2022-12-25T17:32:12.409Z,17.42
2022-12-25T17:35:14.777Z,16.15
2022-12-25T17:38:17.070Z,17.25
2022-12-25T17:41:20.257Z,15.93
2022-12-25T17:44:22.632Z,12.75
2022-12-25T17:47:26.363Z,19.63
2022-12-25T17:50:28.704Z,19.30
2022-12-25T17:53:31.393Z,16.15
2022-12-25T17:56:33.766Z,19.38
2022-12-25T17:59:36.086Z,13.50
2022-12-25T18:02:40.264Z,14.75
2022-12-25T18:05:42.778Z,14.90
2022-12-25T18:08:46.537Z,16.90
2022-12-25T18:11:48.826Z,16.52
2022-12-25T18:14:51.259Z,16.80
2022-12-25T18:17:54.952Z,13.10
2022-12-25T18:20:57.276Z,10.32
2022-12-25T18:23:59.625Z,12.00
2022-12-25T18:27:01.915Z,14.23
2022-12-25T18:30:05.195Z,12.45
2022-12-25T18:33:09.300Z,14.65
2022-12-25T18:36:14.402Z,13.85
2022-12-25T18:39:16.662Z,10.27
2022-12-25T18:42:37.811Z,9.85
2022-12-25T18:45:40.375Z,18.25
2022-12-25T18:48:44.397Z,13.43
2022-12-25T18:51:46.797Z,12.60
2022-12-25T18:54:49.122Z,10.85
2022-12-25T18:57:51.435Z,8.93
2022-12-25T19:00:53.845Z,12.32
2022-12-25T19:04:04.651Z,13.45
2022-12-25T19:07:07.596Z,8.40
2022-12-25T19:10:13.313Z,13.80
2022-12-25T19:13:16.875Z,11.95
2022-12-25T19:16:19.300Z,11.43
2022-12-25T19:19:23.738Z,10.23
2022-12-25T19:22:26.135Z,9.65
2022-12-25T19:25:28.475Z,10.07
2022-12-25T19:28:30.952Z,8.98
2022-12-25T19:31:34.744Z,7.50
2022-12-25T19:34:38.540Z,9.07
2022-12-25T19:37:40.878Z,9.27
2022-12-25T19:41:00.215Z,8.07
2022-12-25T19:44:03.567Z,9.60
2022-12-25T19:47:06.029Z,10.52
2022-12-25T19:50:10.433Z,10.77
2022-12-25T19:53:16.622Z,11.80
2022-12-25T19:56:19.358Z,10.38
2022-12-25T19:59:22.099Z,9.18
2022-12-25T20:02:24.515Z,10.18
2022-12-25T20:05:31.781Z,7.72
2022-12-25T20:08:34.532Z,11.30
2022-12-25T20:11:37.485Z,11.15
2022-12-25T20:14:39.836Z,10.93
2022-12-25T20:17:42.329Z,9.05
2022-12-25T20:20:48.812Z,12.73
2022-12-25T20:23:52.503Z,8.15
2022-12-25T20:26:59.021Z,11.20
2022-12-25T20:30:01.912Z,10.20
2022-12-25T20:33:04.270Z,7.15
2022-12-25T20:36:09.423Z,12.32
2022-12-25T20:39:12.812Z,12.98
2022-12-25T20:42:15.159Z,6.50
2022-12-25T20:45:17.625Z,8.30
2022-12-25T20:48:20.555Z,7.82
2022-12-25T20:51:25.721Z,10.90
2022-12-25T20:54:28.119Z,9.40
2022-12-25T20:57:30.532Z,9.80
2022-12-25T21:00:32.981Z,8.85
2022-12-25T21:03:35.572Z,11.15
2022-12-25T21:06:39.349Z,6.72
2022-12-25T21:09:41.590Z,5.53
2022-12-25T21:12:43.892Z,7.88
2022-12-25T21:15:49.081Z,6.32
2022-12-25T21:18:52.975Z,9.70
2022-12-25T21:21:56.597Z,6.50
2022-12-25T21:24:58.914Z,6.07
2022-12-25T21:28:01.281Z,6.05
2022-12-25T21:31:04.290Z,7.10
2022-12-25T21:34:06.838Z,9.25
2022-12-25T21:37:10.672Z,8.50
2022-12-25T21:40:16.533Z,9.02
2022-12-25T21:43:19.099Z,6.20
2022-12-25T21:46:21.903Z,8.60
2022-12-25T21:49:42.838Z,6.57
2022-12-25T21:52:46.462Z,5.88
2022-12-25T21:55:58.869Z,7.28
2022-12-25T21:59:02.209Z,6.40
2022-12-25T22:02:11.312Z,5.43
2022-12-25T22:05:34.884Z,5.50
2022-12-25T22:08:39.562Z,8.23
2022-12-25T22:12:00.590Z,6.47
2022-12-25T22:15:06.676Z,3.93
2022-12-25T22:18:27.998Z,6.00
2022-12-25T22:21:30.406Z,3.35
2022-12-25T22:24:34.249Z,3.90
2022-12-25T22:27:38.042Z,5.07
2022-12-25T22:30:44.196Z,3.97
2022-12-25T22:33:46.686Z,5.57
2022-12-25T22:36:49.162Z,6.82
2022-12-25T22:39:52.841Z,9.63
2022-12-25T22:42:55.997Z,9.02
2022-12-25T22:45:58.884Z,3.40
2022-12-25T22:49:02.079Z,3.67
2022-12-25T22:52:04.499Z,4.32
2022-12-25T22:55:09.641Z,4.60
2022-12-25T22:58:11.968Z,3.10
2022-12-25T23:01:14.937Z,7.78
2022-12-25T23:04:17.847Z,5.53
2022-12-25T23:07:20.383Z,3.85
2022-12-25T23:10:24.114Z,3.20
2022-12-25T23:13:46.742Z,5.20
2022-12-25T23:16:49.069Z,2.67
2022-12-25T23:20:10.162Z,4.72
2022-12-25T23:23:33.471Z,2.20
2022-12-25T23:26:37.168Z,3.38
2022-12-25T23:29:39.924Z,4.78
2022-12-25T23:32:42.920Z,3.58
2022-12-25T23:35:45.203Z,4.25
2022-12-25T23:38:47.517Z,2.42
2022-12-25T23:41:51.459Z,3.65
2022-12-25T23:44:53.800Z,4.28
2022-12-25T23:47:56.808Z,2.10
2022-12-25T23:51:02.309Z,2.72
2022-12-25T23:54:05.360Z,2.50
2022-12-25T23:57:09.459Z,2.30
